createdAt,value
2022-07-25T00:02:36.102Z,74.47
2022-07-25T00:07:39.111Z,73.03
2022-07-25T00:12:42.107Z,73.44
2022-07-25T00:17:46.453Z,74.03
2022-07-25T00:22:49.408Z,73.58
2022-07-25T00:27:52.445Z,73.93
2022-07-25T00:32:56.738Z,74.59
2022-07-25T00:38:00.093Z,74.91
2022-07-25T00:43:03.140Z,73.71
2022-07-25T00:48:09.322Z,74.35
2022-07-25T00:53:12.338Z,75.39
2022-07-25T00:58:15.548Z,76.06
2022-07-25T01:03:20.568Z,77.31
2022-07-25T01:08:24.059Z,78.29
2022-07-25T01:13:27.220Z,79.64
2022-07-25T01:18:31.760Z,78.55
2022-07-25T01:23:36.188Z,79.34
2022-07-25T01:28:39.341Z,77.94
2022-07-25T01:33:42.658Z,77.03
2022-07-25T01:38:47.324Z,78.84
2022-07-25T01:43:50.494Z,79.27
2022-07-25T01:48:53.527Z,79.38
2022-07-25T01:53:57.868Z,78.29
2022-07-25T01:59:00.957Z,78.16
2022-07-25T02:04:30.458Z,81.59
2022-07-25T02:09:34.974Z,80.78
2022-07-25T02:14:38.068Z,80.86
2022-07-25T02:19:41.622Z,79.70
2022-07-25T02:24:46.060Z,79.05
2022-07-25T02:29:49.020Z,80.52
2022-07-25T02:34:52.016Z,83.98
2022-07-25T02:39:56.416Z,83.78
2022-07-25T02:44:59.321Z,84.21
2022-07-25T02:50:02.454Z,85.15
2022-07-25T02:55:09.807Z,84.29
2022-07-25T03:00:15.044Z,83.73
2022-07-25T03:05:18.730Z,84.32
2022-07-25T03:10:23.134Z,83.52
2022-07-25T03:15:26.125Z,84.61
2022-07-25T03:20:29.136Z,84.97
2022-07-25T03:25:33.556Z,85.30
2022-07-25T03:30:36.693Z,82.25
2022-07-25T03:35:39.661Z,80.78
2022-07-25T03:40:44.092Z,79.63
2022-07-25T03:45:47.110Z,80.05
2022-07-25T03:50:50.105Z,78.80
2022-07-25T03:55:54.371Z,79.22
2022-07-25T04:00:57.377Z,78.76
2022-07-25T04:06:03.103Z,79.27
2022-07-25T04:11:07.609Z,79.06
2022-07-25T04:16:15.083Z,78.90
2022-07-25T04:21:25.330Z,78.72
2022-07-25T04:26:29.743Z,79.68
2022-07-25T04:31:32.791Z,79.95
2022-07-25T04:36:35.887Z,80.29
2022-07-25T04:41:40.380Z,79.21
2022-07-25T04:46:43.370Z,78.96
2022-07-25T04:51:46.410Z,80.58
2022-07-25T04:56:50.664Z,80.88
2022-07-25T05:01:53.605Z,81.58
2022-07-25T05:06:56.702Z,81.82
2022-07-25T05:12:01.344Z,83.49
2022-07-25T05:17:04.567Z,85.46
2022-07-25T05:22:07.660Z,85.00
2022-07-25T05:27:12.267Z,86.10
2022-07-25T05:32:15.539Z,84.03
2022-07-25T05:37:18.618Z,87.39
2022-07-25T05:42:23.191Z,87.82
2022-07-25T05:47:26.531Z,86.24
2022-07-25T05:52:29.542Z,84.28
2022-07-25T05:57:34.622Z,83.84
2022-07-25T06:02:37.911Z,82.44
2022-07-25T06:07:41.392Z,81.69
2022-07-25T06:12:45.758Z,79.85
2022-07-25T06:17:50.577Z,79.85
2022-07-25T06:22:53.866Z,78.77
2022-07-25T06:27:58.288Z,79.66
2022-07-25T06:33:01.190Z,79.33
2022-07-25T06:38:04.453Z,79.55
2022-07-25T06:43:08.845Z,79.63
2022-07-25T06:48:12.046Z,81.48
2022-07-25T06:53:15.069Z,84.04
2022-07-25T06:58:19.380Z,83.69
2022-07-25T07:03:25.844Z,83.04
2022-07-25T07:08:28.957Z,84.75
2022-07-25T07:13:33.457Z,82.34
2022-07-25T07:18:36.899Z,83.14
2022-07-25T07:23:40.304Z,83.50
2022-07-25T07:28:44.605Z,84.11
2022-07-25T07:33:48.061Z,83.78
2022-07-25T07:38:51.031Z,84.51
2022-07-25T07:43:56.493Z,85.34
2022-07-25T07:48:59.830Z,84.50
2022-07-25T07:54:20.363Z,83.44
2022-07-25T07:59:24.847Z,81.82
2022-07-25T08:04:27.838Z,82.60
2022-07-25T08:09:30.775Z,83.02
2022-07-25T08:20:37.833Z,81.39
2022-07-25T08:25:42.892Z,79.68
2022-07-25T08:30:47.570Z,76.99
2022-07-25T08:35:53.619Z,76.87
2022-07-25T08:40:58.069Z,76.61
2022-07-25T08:46:04.296Z,75.77
2022-07-25T08:51:08.977Z,72.19
2022-07-25T08:56:17.407Z,75.96
2022-07-25T09:01:25.283Z,76.73
2022-07-25T09:06:29.663Z,74.97
2022-07-25T09:11:36.665Z,75.51
2022-07-25T09:16:44.445Z,75.55
2022-07-25T09:22:00.188Z,75.10
2022-07-25T09:27:12.432Z,73.70
2022-07-25T09:32:18.852Z,72.19
2022-07-25T09:37:27.905Z,72.18
2022-07-25T09:42:33.471Z,69.31
2022-07-25T09:47:50.643Z,67.47
2022-07-25T09:52:55.207Z,66.01
2022-07-25T09:57:58.786Z,66.66
2022-07-25T10:03:19.210Z,66.68
2022-07-25T10:08:23.555Z,68.75
2022-07-25T10:13:34.291Z,66.53
2022-07-25T10:18:49.649Z,62.83
2022-07-25T10:24:00.112Z,64.57
2022-07-25T10:29:10.053Z,64.03
2022-07-25T10:34:14.775Z,60.58
2022-07-25T10:39:19.693Z,60.30
2022-07-25T10:44:22.849Z,61.58
2022-07-25T10:49:32.057Z,61.11
2022-07-25T10:54:36.943Z,61.39
2022-07-25T10:59:41.397Z,61.29
2022-07-25T11:04:46.946Z,63.02
2022-07-25T11:09:58.403Z,65.25
2022-07-25T11:15:03.368Z,66.43
2022-07-25T11:20:10.635Z,67.71
2022-07-25T11:25:15.266Z,68.84
2022-07-25T11:30:21.167Z,69.19
2022-07-25T11:35:27.569Z,69.03
2022-07-25T11:40:32.714Z,67.03
2022-07-25T11:45:36.605Z,67.85
2022-07-25T11:50:43.113Z,68.26
2022-07-25T11:55:47.265Z,67.80
2022-07-25T12:00:51.137Z,66.52
2022-07-25T12:05:56.236Z,66.56
2022-07-25T12:10:59.252Z,64.59
2022-07-25T12:16:02.339Z,62.17
2022-07-25T12:21:07.192Z,59.89
2022-07-25T12:26:13.518Z,61.71
2022-07-25T12:31:16.535Z,62.25
2022-07-25T12:36:20.961Z,59.90
2022-07-25T12:41:23.982Z,59.78
2022-07-25T12:46:27.497Z,60.46
2022-07-25T12:51:32.049Z,59.87
2022-07-25T12:56:35.873Z,59.33
2022-07-25T13:01:38.960Z,58.66
2022-07-25T13:06:43.510Z,57.37
2022-07-25T13:11:46.748Z,58.00
2022-07-25T13:16:50.501Z,58.46
2022-07-25T13:21:55.056Z,57.36
2022-07-25T13:26:58.107Z,58.54
2022-07-25T13:32:01.205Z,59.81
2022-07-25T13:37:07.124Z,55.59
2022-07-25T13:42:10.197Z,55.58
2022-07-25T13:47:13.234Z,55.08
2022-07-25T13:52:18.340Z,53.91
2022-07-25T13:57:21.440Z,56.00
2022-07-25T14:02:24.605Z,53.70
2022-07-25T14:07:29.008Z,53.89
2022-07-25T14:12:31.996Z,51.33
2022-07-25T14:17:35.320Z,52.49
2022-07-25T14:22:42.024Z,51.61
2022-07-25T14:27:46.421Z,49.70
2022-07-25T14:32:49.457Z,51.29
2022-07-25T14:37:53.877Z,50.22
2022-07-25T14:42:57.360Z,51.07
2022-07-25T14:48:00.399Z,49.99
2022-07-25T14:53:06.305Z,50.62
2022-07-25T14:58:10.407Z,49.48
2022-07-25T15:03:15.467Z,51.76
2022-07-25T15:08:20.011Z,52.54
2022-07-25T15:13:31.893Z,51.58
2022-07-25T15:18:52.163Z,50.83
2022-07-25T15:24:00.041Z,52.04
2022-07-25T15:29:03.345Z,52.24
2022-07-25T15:34:06.844Z,53.07
2022-07-25T15:39:12.008Z,52.04
2022-07-25T15:44:15.084Z,52.89
2022-07-25T15:49:18.352Z,52.30
2022-07-25T15:54:26.335Z,53.81
2022-07-25T15:59:32.411Z,54.61
2022-07-25T16:04:35.619Z,53.04
2022-07-25T16:09:40.227Z,54.26
2022-07-25T16:14:43.221Z,54.87
2022-07-25T16:19:46.518Z,54.44
2022-07-25T16:24:52.281Z,55.53
2022-07-25T16:29:55.301Z,55.65
2022-07-25T16:34:58.649Z,54.85
2022-07-25T16:40:03.176Z,55.76
2022-07-25T16:45:06.854Z,57.13
2022-07-25T16:50:10.510Z,56.52
2022-07-25T16:55:15.302Z,56.98
2022-07-25T17:00:18.841Z,57.84
2022-07-25T17:05:22.372Z,57.94
2022-07-25T17:10:26.986Z,58.65
2022-07-25T17:15:29.953Z,59.32
2022-07-25T17:20:33.737Z,60.83
2022-07-25T17:25:38.344Z,63.07
2022-07-25T17:30:41.376Z,66.55
2022-07-25T17:35:44.513Z,67.43
2022-07-25T17:40:48.857Z,68.40
2022-07-25T17:45:51.945Z,68.07
2022-07-25T17:50:55.143Z,68.48
2022-07-25T17:55:59.605Z,69.73
2022-07-25T18:01:05.832Z,69.18
2022-07-25T18:06:11.779Z,69.09
2022-07-25T18:11:16.217Z,69.47
2022-07-25T18:16:19.314Z,70.21
2022-07-25T18:21:23.945Z,70.26
2022-07-25T18:26:28.532Z,71.28
2022-07-25T18:31:31.758Z,71.45
2022-07-25T18:36:35.469Z,71.91
2022-07-25T18:41:39.805Z,73.92
2022-07-25T18:46:45.691Z,73.80
2022-07-25T18:51:48.992Z,73.97
2022-07-25T18:56:53.642Z,74.15
2022-07-25T19:01:56.664Z,74.52
2022-07-25T19:06:59.730Z,74.69
2022-07-25T19:12:04.274Z,74.33
2022-07-25T19:17:07.344Z,75.43
2022-07-25T19:22:10.522Z,76.31
2022-07-25T19:27:15.059Z,75.89
2022-07-25T19:32:18.407Z,77.54
2022-07-25T19:37:21.474Z,77.77
2022-07-25T19:42:25.852Z,77.97
2022-07-25T19:47:29.835Z,79.97
2022-07-25T19:52:33.085Z,80.62
2022-07-25T19:57:37.467Z,79.86
2022-07-25T20:02:40.831Z,80.91
2022-07-25T20:07:44.070Z,80.04
2022-07-25T20:12:49.009Z,82.20
2022-07-25T20:17:52.050Z,82.50
2022-07-25T20:22:55.114Z,83.63
2022-07-25T20:27:59.659Z,85.50
2022-07-25T20:33:07.931Z,84.08
2022-07-25T20:38:12.545Z,85.47
2022-07-25T20:43:18.498Z,85.52
2022-07-25T20:48:21.512Z,85.67
2022-07-25T20:53:25.336Z,86.63
2022-07-25T20:58:29.747Z,87.33
2022-07-25T21:03:32.721Z,89.45
2022-07-25T21:08:35.807Z,87.98
2022-07-25T21:13:40.251Z,92.84
2022-07-25T21:18:43.805Z,91.29
2022-07-25T21:23:47.088Z,90.88
2022-07-25T21:28:51.681Z,91.26
2022-07-25T21:33:54.971Z,90.81
2022-07-25T21:38:58.233Z,92.79
2022-07-25T21:44:02.748Z,93.03
2022-07-25T21:49:40.985Z,92.03
2022-07-25T21:54:45.774Z,91.77
2022-07-25T21:59:50.354Z,93.38
2022-07-25T22:04:53.434Z,94.60
2022-07-25T22:09:56.778Z,92.67
2022-07-25T22:15:01.844Z,95.53
2022-07-25T22:20:09.112Z,94.73
2022-07-25T22:25:12.376Z,93.93
2022-07-25T22:30:19.481Z,91.49
2022-07-25T22:35:22.834Z,91.05
2022-07-25T22:40:26.488Z,90.01
2022-07-25T22:45:31.245Z,91.30
2022-07-25T22:50:34.689Z,92.10
2022-07-25T22:55:38.237Z,90.06
2022-07-25T23:00:43.105Z,92.74
2022-07-25T23:05:46.196Z,90.02
2022-07-25T23:10:49.311Z,92.71
2022-07-25T23:15:53.881Z,90.31
2022-07-25T23:20:57.379Z,89.88
2022-07-25T23:26:00.569Z,89.99
2022-07-25T23:31:05.128Z,91.32
2022-07-25T23:36:08.768Z,91.94
2022-07-25T23:41:11.775Z,89.11
2022-07-25T23:46:16.363Z,88.67
2022-07-25T23:51:21.247Z,89.94
2022-07-25T23:56:24.617Z,90.89
